CheckWX is a tool to help pilots better visualize weather data.  It is not intended as a substitute for an official pre-flight weather briefing.

14:03:00 UTC

SLVR TAF
Viru Viru International Airport
Santa Cruz, Bolivia
TAF SLVR 130955Z 1312/1412 15005KT 9999 BKN017 TX34/1320Z TN21/1410Z TEMPO 1317/1320 05012KT SCT020 FEW030CB BECMG 1404/1407 BKN007 BECMG 1409/1412 FEW012

Dec-13@
12:00 UTC

Dec-13 @ 12:00 UTC

Dec-14@
04:00 UTC

Dec-14 @ 04:00 UTC

TAF SLVR 130955Z 1312/1412 15005KT 9999 BKN017 TX34/1320Z TN21/1410Z
Wind
  • 150° at 5 KTS
Cloud Levels
  • Broken at 1,700' AGL

Dec-13@
17:00 UTC

Dec-13 @ 17:00 UTC

Dec-13@
20:00 UTC

Dec-13 @ 20:00 UTC

TEMPO 1317/1320 05012KT SCT020 FEW030CB

Temporary

Temporary Changes expected for less than half the time period

Wind
  • 050° at 12 KTS
Cloud Levels
  • Scattered at 2,000' AGL
  • Few at 3,000' AGL

Dec-14@
04:00 UTC

Dec-14 @ 04:00 UTC

Dec-14@
09:00 UTC

Dec-14 @ 09:00 UTC

BECMG 1404/1407 BKN007

Becoming

Becoming Conditions expected by Sat, Dec 14, 2019 @ 07:00 UTC

Wind
  • 150° at 5 KTS
Cloud Levels
  • Broken at 700' AGL

Dec-14@
09:00 UTC

Dec-14 @ 09:00 UTC

Dec-14@
12:00 UTC

Dec-14 @ 12:00 UTC

BECMG 1409/1412 FEW012

Becoming

Becoming Conditions expected by Sat, Dec 14, 2019 @ 12:00 UTC

Wind
  • 150° at 5 KTS
Cloud Levels
  • Few at 1,200' AGL